createdAt,value
2023-03-20T00:00:00.110Z,101430.00
2023-03-20T00:02:29.249Z,101430.75
2023-03-20T00:04:59.653Z,101428.97
2023-03-20T00:07:28.784Z,101431.19
2023-03-20T00:09:57.919Z,101428.44
2023-03-20T00:12:27.348Z,101433.91
2023-03-20T00:14:56.554Z,101424.25
2023-03-20T00:17:25.732Z,101431.38
2023-03-20T00:19:54.772Z,101430.03
2023-03-20T00:22:25.193Z,101425.22
2023-03-20T00:24:54.341Z,101430.34
2023-03-20T00:27:23.385Z,101430.84
2023-03-20T00:29:52.422Z,101426.25
2023-03-20T00:32:21.460Z,101428.34
2023-03-20T00:34:50.627Z,101425.28
2023-03-20T00:37:19.697Z,101423.13
2023-03-20T00:39:50.342Z,101433.06
2023-03-20T00:42:23.004Z,101424.91
2023-03-20T00:44:54.693Z,101427.81
2023-03-20T00:47:27.194Z,101427.50
2023-03-20T00:49:57.889Z,101425.22
2023-03-20T00:52:27.253Z,101424.25
2023-03-20T00:54:57.646Z,101416.19
2023-03-20T00:57:30.800Z,101414.53
2023-03-20T01:00:05.046Z,101415.44
2023-03-20T01:02:35.119Z,101417.97
2023-03-20T01:05:05.587Z,101426.88
2023-03-20T01:07:34.725Z,101425.13
2023-03-20T01:10:07.746Z,101419.34
2023-03-20T01:12:36.857Z,101421.88
2023-03-20T01:15:16.018Z,101421.00
2023-03-20T01:17:45.372Z,101428.34
2023-03-20T01:20:17.839Z,101415.16
2023-03-20T01:22:47.062Z,101421.88
2023-03-20T01:25:17.810Z,101417.34
2023-03-20T01:27:51.424Z,101419.66
2023-03-20T01:30:23.458Z,101420.72
2023-03-20T01:32:53.171Z,101420.91
2023-03-20T01:35:25.087Z,101420.41
2023-03-20T01:37:54.512Z,101417.78
2023-03-20T01:40:38.401Z,101420.06
2023-03-20T01:43:14.746Z,101423.53
2023-03-20T01:45:55.245Z,101433.19
2023-03-20T01:48:28.625Z,101435.88
2023-03-20T01:50:57.742Z,101438.28
2023-03-20T01:53:30.782Z,101441.25
2023-03-20T01:56:04.831Z,101439.69
2023-03-20T01:58:46.673Z,101443.59
2023-03-20T02:01:16.659Z,101442.75
2023-03-20T02:03:51.833Z,101438.53
2023-03-20T02:06:34.272Z,101438.03
2023-03-20T02:09:13.657Z,101443.06
2023-03-20T02:11:47.473Z,101445.28
2023-03-20T02:14:18.604Z,101432.25
2023-03-20T02:16:56.536Z,101432.38
2023-03-20T02:19:47.542Z,101436.50
2023-03-20T02:23:04.501Z,101443.34
2023-03-20T02:26:09.170Z,101434.44
2023-03-20T02:29:10.352Z,101435.44
2023-03-20T02:32:15.350Z,101438.41
2023-03-20T02:35:15.459Z,101425.66
2023-03-20T02:38:26.318Z,101433.16
2023-03-20T02:41:03.186Z,101435.22
2023-03-20T02:43:43.251Z,101435.78
2023-03-20T02:46:19.246Z,101432.19
2023-03-20T02:48:55.687Z,101425.00
2023-03-20T02:51:32.770Z,101422.53
2023-03-20T02:54:08.353Z,101428.09
2023-03-20T02:56:49.237Z,101421.75
2023-03-20T02:59:27.794Z,101426.19
2023-03-20T03:02:04.062Z,101423.72
2023-03-20T03:04:39.344Z,101414.16
2023-03-20T03:07:11.987Z,101418.69
2023-03-20T03:09:47.282Z,101419.28
2023-03-20T03:12:21.410Z,101424.28
2023-03-20T03:14:54.547Z,101413.47
2023-03-20T03:17:28.257Z,101410.94
2023-03-20T03:20:04.802Z,101414.25
2023-03-20T03:22:36.226Z,101413.19
2023-03-20T03:25:06.632Z,101409.81
2023-03-20T03:27:42.033Z,101406.91
2023-03-20T03:30:17.057Z,101404.09
2023-03-20T03:32:52.368Z,101402.41
2023-03-20T03:35:24.529Z,101397.19
2023-03-20T03:37:59.938Z,101399.78
2023-03-20T03:40:36.982Z,101401.47
2023-03-20T03:43:16.490Z,101400.34
2023-03-20T03:45:50.629Z,101400.63
2023-03-20T03:48:25.790Z,101394.84
2023-03-20T03:50:58.425Z,101389.22
2023-03-20T03:53:32.944Z,101391.97
2023-03-20T03:56:07.276Z,101397.22
2023-03-20T03:58:42.816Z,101396.03
2023-03-20T04:01:14.180Z,101403.25
2023-03-20T04:03:47.212Z,101401.47
2023-03-20T04:06:18.148Z,101401.69
2023-03-20T04:08:47.486Z,101405.97
2023-03-20T04:11:18.561Z,101405.91
2023-03-20T04:13:50.779Z,101396.47
2023-03-20T04:16:21.841Z,101396.53
2023-03-20T04:18:51.923Z,101398.03
2023-03-20T04:21:21.567Z,101394.28
2023-03-20T04:23:50.739Z,101397.88
2023-03-20T04:26:21.411Z,101390.13
2023-03-20T04:28:52.077Z,101391.72
2023-03-20T04:31:32.989Z,101393.78
2023-03-20T04:34:12.877Z,101386.06
2023-03-20T04:37:02.613Z,101389.13
2023-03-20T04:39:44.296Z,101383.50
2023-03-20T04:42:13.782Z,101386.09
2023-03-20T04:44:44.343Z,101390.66
2023-03-20T04:47:13.413Z,101384.66
2023-03-20T04:49:44.721Z,101385.03
2023-03-20T04:52:13.884Z,101385.88
2023-03-20T04:54:45.071Z,101390.31
2023-03-20T04:57:14.422Z,101385.88
2023-03-20T04:59:45.332Z,101382.56
2023-03-20T05:02:15.088Z,101386.88
2023-03-20T05:04:44.257Z,101389.06
2023-03-20T05:07:13.762Z,101395.72
2023-03-20T05:09:52.069Z,101386.56
2023-03-20T05:12:22.876Z,101395.72
2023-03-20T05:15:10.820Z,101388.13
2023-03-20T05:17:58.131Z,101395.25
2023-03-20T05:20:53.459Z,101391.94
2023-03-20T05:23:41.270Z,101384.66
2023-03-20T05:26:28.831Z,101386.38
2023-03-20T05:29:11.948Z,101395.72
2023-03-20T05:32:01.740Z,101394.06
2023-03-20T05:34:57.456Z,101397.94
2023-03-20T05:37:35.995Z,101398.88
2023-03-20T05:40:12.081Z,101408.47
2023-03-20T05:42:52.687Z,101404.66
2023-03-20T05:45:45.492Z,101409.44
2023-03-20T05:48:36.875Z,101412.13
2023-03-20T05:51:21.621Z,101418.00
2023-03-20T05:53:56.381Z,101413.69
2023-03-20T05:56:37.549Z,101430.84
2023-03-20T05:59:23.120Z,101430.75
2023-03-20T06:02:05.382Z,101428.31
2023-03-20T06:04:39.293Z,101430.00
2023-03-20T06:07:21.552Z,101422.84
2023-03-20T06:09:59.220Z,101423.97
2023-03-20T06:12:29.622Z,101420.31
2023-03-20T06:14:58.720Z,101432.19
2023-03-20T06:17:28.892Z,101427.63
2023-03-20T06:20:06.759Z,101442.13
2023-03-20T06:22:35.919Z,101438.25
2023-03-20T06:25:05.946Z,101432.81
2023-03-20T06:27:40.519Z,101437.59
2023-03-20T06:30:11.513Z,101441.03
2023-03-20T06:32:42.752Z,101439.53
2023-03-20T06:35:16.484Z,101439.06
2023-03-20T06:37:48.551Z,101446.06
2023-03-20T06:40:23.250Z,101438.91
2023-03-20T06:42:52.968Z,101435.16
2023-03-20T06:45:24.140Z,101440.47
2023-03-20T06:48:01.966Z,101440.56
2023-03-20T06:50:32.927Z,101445.78
2023-03-20T06:53:03.031Z,101439.16
2023-03-20T06:56:01.761Z,101442.97
2023-03-20T06:58:31.425Z,101443.53
2023-03-20T07:01:00.446Z,101436.78
2023-03-20T07:03:30.171Z,101450.31
2023-03-20T07:06:03.131Z,101447.97
2023-03-20T07:08:34.720Z,101451.25
2023-03-20T07:11:04.649Z,101445.84
2023-03-20T07:13:34.267Z,101447.91
2023-03-20T07:16:12.784Z,101452.94
2023-03-20T07:18:43.902Z,101454.97
2023-03-20T07:21:21.246Z,101454.97
2023-03-20T07:23:50.421Z,101454.03
2023-03-20T07:26:19.703Z,101449.53
2023-03-20T07:28:48.966Z,101451.38
2023-03-20T07:31:31.124Z,101457.31
2023-03-20T07:34:11.386Z,101466.38
2023-03-20T07:36:43.150Z,101459.72
2023-03-20T07:39:14.942Z,101456.34
2023-03-20T07:41:49.518Z,101460.47
2023-03-20T07:44:28.202Z,101454.19
2023-03-20T07:46:58.108Z,101461.84
2023-03-20T07:49:27.429Z,101463.31
2023-03-20T07:51:57.996Z,101460.22
2023-03-20T07:54:27.355Z,101462.56
2023-03-20T07:56:56.506Z,101459.72
2023-03-20T07:59:26.304Z,101464.88
2023-03-20T08:01:55.362Z,101463.09
2023-03-20T08:04:24.754Z,101451.09
2023-03-20T08:06:53.902Z,101460.50
2023-03-20T08:09:25.041Z,101451.81
2023-03-20T08:11:54.160Z,101456.22
2023-03-20T08:14:23.452Z,101460.22
2023-03-20T08:17:10.329Z,101462.97
2023-03-20T08:19:41.867Z,101477.03
2023-03-20T08:22:11.038Z,101471.38
2023-03-20T08:24:41.512Z,101484.00
2023-03-20T08:27:10.634Z,101485.50
2023-03-20T08:29:40.055Z,101480.81
2023-03-20T08:32:09.294Z,101484.78
2023-03-20T08:34:38.513Z,101491.47
2023-03-20T08:37:07.870Z,101487.41
2023-03-20T08:39:37.733Z,101497.50
2023-03-20T08:42:08.512Z,101487.69
2023-03-20T08:44:37.570Z,101485.88
2023-03-20T08:47:07.582Z,101482.28
2023-03-20T08:49:36.905Z,101489.53
2023-03-20T08:52:06.935Z,101484.19
2023-03-20T08:54:36.177Z,101488.41
2023-03-20T08:57:05.263Z,101481.44
2023-03-20T08:59:36.067Z,101482.84
2023-03-20T09:02:05.676Z,101480.88
2023-03-20T09:04:34.759Z,101476.03
2023-03-20T09:07:04.085Z,101479.63
2023-03-20T09:09:33.380Z,101486.94
2023-03-20T09:12:02.877Z,101478.78
2023-03-20T09:14:31.962Z,101476.50
2023-03-20T09:17:02.453Z,101486.22
2023-03-20T09:19:31.937Z,101478.38
2023-03-20T09:22:01.402Z,101475.22
2023-03-20T09:24:31.417Z,101481.53
2023-03-20T09:27:03.521Z,101483.50
2023-03-20T09:29:32.941Z,101473.56
2023-03-20T09:32:03.535Z,101485.59
2023-03-20T09:34:32.628Z,101486.31
2023-03-20T09:37:03.140Z,101489.25
2023-03-20T09:39:32.352Z,101489.69
2023-03-20T09:42:07.956Z,101485.94
2023-03-20T09:44:52.383Z,101487.28
2023-03-20T09:47:31.235Z,101491.75
2023-03-20T09:50:29.419Z,101508.63
2023-03-20T09:53:07.095Z,101497.66
2023-03-20T09:55:39.800Z,101498.06
2023-03-20T09:58:16.246Z,101509.81
2023-03-20T10:00:47.930Z,101503.81
2023-03-20T10:03:22.555Z,101504.34
2023-03-20T10:06:00.093Z,101500.66
2023-03-20T10:08:32.562Z,101497.94
2023-03-20T10:11:12.872Z,101498.59
2023-03-20T10:13:57.603Z,101507.91
2023-03-20T10:16:45.644Z,101502.53
2023-03-20T10:19:23.759Z,101501.59
2023-03-20T10:21:59.050Z,101493.88
2023-03-20T10:24:32.962Z,101485.06
2023-03-20T10:27:07.346Z,101481.31
2023-03-20T10:29:52.944Z,101485.06
2023-03-20T10:32:27.976Z,101487.81
2023-03-20T10:35:11.415Z,101489.78
2023-03-20T10:37:54.249Z,101488.41
2023-03-20T10:40:30.288Z,101490.09
2023-03-20T10:43:04.140Z,101467.47
2023-03-20T10:45:40.423Z,101484.66
2023-03-20T10:48:18.004Z,101477.72
2023-03-20T10:50:51.777Z,101475.72
2023-03-20T10:53:38.422Z,101473.34
2023-03-20T10:56:11.765Z,101472.09
2023-03-20T10:58:45.120Z,101474.69
2023-03-20T11:01:14.339Z,101471.22
2023-03-20T11:03:43.525Z,101474.25
2023-03-20T11:06:20.109Z,101464.22
2023-03-20T11:08:52.398Z,101468.50
2023-03-20T11:11:26.575Z,101469.25
2023-03-20T11:13:56.951Z,101463.25
2023-03-20T11:16:31.113Z,101460.44
2023-03-20T11:19:06.929Z,101464.41
2023-03-20T11:21:46.407Z,101463.66
2023-03-20T11:24:27.040Z,101458.66
2023-03-20T11:27:05.959Z,101457.94
2023-03-20T11:29:36.111Z,101460.25
2023-03-20T11:32:08.359Z,101456.88
2023-03-20T11:34:41.228Z,101459.22
2023-03-20T11:37:25.857Z,101448.13
2023-03-20T11:39:58.551Z,101445.56
2023-03-20T11:42:30.326Z,101454.97
2023-03-20T11:45:02.066Z,101450.31
2023-03-20T11:47:35.372Z,101444.38
2023-03-20T11:50:07.305Z,101444.66
2023-03-20T11:52:40.995Z,101446.66
2023-03-20T11:55:26.130Z,101452.47
2023-03-20T11:57:58.964Z,101448.66
2023-03-20T12:00:30.332Z,101449.22
2023-03-20T12:02:59.405Z,101451.94
2023-03-20T12:05:35.447Z,101443.06
2023-03-20T12:08:14.030Z,101446.41
2023-03-20T12:10:47.043Z,101449.22
2023-03-20T12:13:21.698Z,101439.19
2023-03-20T12:15:56.593Z,101442.59
2023-03-20T12:18:32.589Z,101438.69
2023-03-20T12:21:10.563Z,101447.69
2023-03-20T12:23:44.849Z,101437.22
2023-03-20T12:26:16.902Z,101443.50
2023-03-20T12:28:53.560Z,101442.34
2023-03-20T12:31:27.470Z,101446.13
2023-03-20T12:34:01.394Z,101440.13
2023-03-20T12:36:34.318Z,101433.91
2023-03-20T12:39:08.074Z,101440.59
2023-03-20T12:41:46.495Z,101439.63
2023-03-20T12:44:33.442Z,101432.19
2023-03-20T12:47:14.973Z,101437.94
2023-03-20T12:49:51.935Z,101430.53
2023-03-20T12:52:33.142Z,101429.34
2023-03-20T12:55:26.810Z,101424.88
2023-03-20T12:58:09.451Z,101431.81
2023-03-20T13:00:49.600Z,101413.28
2023-03-20T13:03:31.138Z,101414.97
2023-03-20T13:06:08.328Z,101413.63
2023-03-20T13:09:10.225Z,101416.63
2023-03-20T13:11:51.706Z,101404.47
2023-03-20T13:14:25.729Z,101409.97
2023-03-20T13:17:00.763Z,101400.28
2023-03-20T13:19:38.221Z,101395.53
2023-03-20T13:22:13.868Z,101401.13
2023-03-20T13:24:47.229Z,101398.72
2023-03-20T13:27:33.052Z,101399.75
2023-03-20T13:30:06.322Z,101392.25
2023-03-20T13:32:47.038Z,101392.84
2023-03-20T13:35:33.081Z,101380.78
2023-03-20T13:38:07.820Z,101391.03
2023-03-20T13:40:41.063Z,101387.72
2023-03-20T13:43:26.126Z,101392.41
2023-03-20T13:46:04.606Z,101385.69
2023-03-20T13:48:37.274Z,101387.59
2023-03-20T13:51:15.012Z,101374.88
2023-03-20T13:53:56.027Z,101383.69
2023-03-20T13:56:37.012Z,101385.34
2023-03-20T13:59:29.717Z,101379.09
2023-03-20T14:02:07.020Z,101380.69
2023-03-20T14:04:37.833Z,101384.28
2023-03-20T14:07:30.003Z,101374.69
2023-03-20T14:09:59.391Z,101375.69
2023-03-20T14:12:33.251Z,101373.63
2023-03-20T14:15:06.001Z,101378.16
2023-03-20T14:17:35.348Z,101380.75
2023-03-20T14:20:17.241Z,101379.00
2023-03-20T14:22:48.945Z,101385.16
2023-03-20T14:25:21.118Z,101381.28
2023-03-20T14:27:57.934Z,101384.00
2023-03-20T14:30:43.099Z,101388.94
2023-03-20T14:33:31.168Z,101393.56
2023-03-20T14:36:20.673Z,101384.63
2023-03-20T14:39:07.168Z,101385.97
2023-03-20T14:41:58.490Z,101388.31
2023-03-20T14:44:39.612Z,101392.22
2023-03-20T14:47:23.336Z,101392.22
2023-03-20T14:49:58.708Z,101389.06
2023-03-20T14:52:38.943Z,101381.50
2023-03-20T14:55:35.380Z,101394.56
2023-03-20T14:58:07.059Z,101401.06
2023-03-20T15:00:47.448Z,101393.66
2023-03-20T15:03:19.722Z,101385.41
2023-03-20T15:05:57.007Z,101391.78
2023-03-20T15:08:29.944Z,101390.16
2023-03-20T15:11:04.058Z,101385.47
2023-03-20T15:13:35.271Z,101387.34
2023-03-20T15:16:08.074Z,101394.53
2023-03-20T15:18:41.328Z,101396.38
2023-03-20T15:21:15.637Z,101404.50
2023-03-20T15:23:46.381Z,101402.44
2023-03-20T15:26:16.973Z,101405.16
2023-03-20T15:28:47.900Z,101410.28
2023-03-20T15:31:25.350Z,101413.44
2023-03-20T15:33:57.646Z,101410.13
2023-03-20T15:36:29.555Z,101404.34
2023-03-20T15:39:14.156Z,101398.88
2023-03-20T15:41:47.312Z,101399.47
2023-03-20T15:44:22.990Z,101391.94
2023-03-20T15:46:54.518Z,101400.81
2023-03-20T15:49:25.600Z,101396.50
2023-03-20T15:51:57.116Z,101394.94
2023-03-20T15:54:26.540Z,101388.69
2023-03-20T15:56:59.878Z,101394.25
2023-03-20T15:59:32.902Z,101391.41
2023-03-20T16:02:03.423Z,101380.31
2023-03-20T16:04:34.036Z,101380.72
2023-03-20T16:07:03.218Z,101372.16
2023-03-20T16:09:32.302Z,101374.13
2023-03-20T16:12:03.098Z,101364.72
2023-03-20T16:14:34.787Z,101363.69
2023-03-20T16:17:05.824Z,101363.34
2023-03-20T16:19:37.834Z,101364.13
2023-03-20T16:22:24.353Z,101369.84
2023-03-20T16:24:58.211Z,101376.25
2023-03-20T16:27:30.517Z,101369.34
2023-03-20T16:30:00.256Z,101377.41
2023-03-20T16:32:36.052Z,101376.03
2023-03-20T16:35:15.877Z,101376.16
2023-03-20T16:37:49.874Z,101376.34
2023-03-20T16:40:22.376Z,101380.09
2023-03-20T16:42:56.823Z,101387.19
2023-03-20T16:45:30.667Z,101383.25
2023-03-20T16:48:28.366Z,101380.41
2023-03-20T16:51:17.433Z,101378.63
2023-03-20T16:53:49.772Z,101378.03
2023-03-20T16:56:26.206Z,101387.75
2023-03-20T16:58:57.249Z,101383.34
2023-03-20T17:01:29.610Z,101385.25
2023-03-20T17:04:12.319Z,101387.41
2023-03-20T17:06:47.963Z,101383.88
2023-03-20T17:09:24.642Z,101381.56
2023-03-20T17:12:02.392Z,101387.75
2023-03-20T17:14:31.621Z,101383.88
2023-03-20T17:17:00.825Z,101385.75
2023-03-20T17:19:33.170Z,101386.91
2023-03-20T17:22:05.553Z,101389.00
2023-03-20T17:24:34.780Z,101384.50
2023-03-20T17:27:03.861Z,101385.75
2023-03-20T17:29:33.022Z,101391.19
2023-03-20T17:32:02.082Z,101400.63
2023-03-20T17:34:31.323Z,101398.63
2023-03-20T17:37:03.567Z,101398.41
2023-03-20T17:39:32.616Z,101405.94
2023-03-20T17:42:01.666Z,101409.63
2023-03-20T17:44:30.753Z,101416.72
2023-03-20T17:47:00.389Z,101406.56
2023-03-20T17:49:29.503Z,101421.31
2023-03-20T17:51:58.605Z,101416.09
2023-03-20T17:54:29.067Z,101424.47
2023-03-20T17:56:58.169Z,101427.41
2023-03-20T17:59:31.056Z,101419.56
2023-03-20T18:02:00.263Z,101416.00
2023-03-20T18:04:29.448Z,101427.78
2023-03-20T18:06:58.874Z,101423.47
2023-03-20T18:09:30.600Z,101432.47
2023-03-20T18:11:59.756Z,101428.50
2023-03-20T18:14:28.863Z,101427.16
2023-03-20T18:16:58.106Z,101431.81
2023-03-20T18:19:30.296Z,101420.31
2023-03-20T18:22:00.554Z,101421.63
2023-03-20T18:24:32.325Z,101421.09
2023-03-20T18:27:01.528Z,101422.66
2023-03-20T18:29:31.037Z,101419.41
2023-03-20T18:32:00.371Z,101417.19
2023-03-20T18:34:29.407Z,101418.97
2023-03-20T18:36:59.573Z,101426.16
2023-03-20T18:39:28.695Z,101416.22
2023-03-20T18:41:59.091Z,101421.28
2023-03-20T18:44:28.151Z,101427.81
2023-03-20T18:46:57.693Z,101428.38
2023-03-20T18:49:26.906Z,101423.84
2023-03-20T18:51:56.048Z,101424.97
2023-03-20T18:54:25.054Z,101426.06
2023-03-20T18:56:56.314Z,101417.28
2023-03-20T18:59:26.837Z,101416.78
2023-03-20T19:01:56.011Z,101408.59
2023-03-20T19:04:26.763Z,101403.28
2023-03-20T19:06:55.794Z,101411.22
2023-03-20T19:09:25.362Z,101409.31
2023-03-20T19:11:54.651Z,101404.78
2023-03-20T19:14:25.706Z,101405.50
2023-03-20T19:16:56.330Z,101410.16
2023-03-20T19:19:25.655Z,101403.94
2023-03-20T19:21:54.703Z,101413.81
2023-03-20T19:24:23.956Z,101410.09
2023-03-20T19:26:56.943Z,101405.16
2023-03-20T19:29:28.095Z,101403.28
2023-03-20T19:31:59.754Z,101406.09
2023-03-20T19:35:10.770Z,101405.34
2023-03-20T19:37:18.255Z,101398.78
2023-03-20T19:39:47.320Z,101392.00
2023-03-20T19:42:47.475Z,101396.09
2023-03-20T19:45:07.325Z,101392.53
2023-03-20T19:47:37.834Z,101395.53
2023-03-20T19:50:07.649Z,101391.44
2023-03-20T19:52:37.481Z,101393.34
2023-03-20T19:55:07.519Z,101393.22
2023-03-20T19:57:36.577Z,101390.22
2023-03-20T20:00:54.972Z,101395.53
2023-03-20T20:02:57.718Z,101388.53
2023-03-20T20:05:29.451Z,101387.63
2023-03-20T20:10:50.212Z,101392.84
2023-03-20T20:13:21.522Z,101394.69
2023-03-20T20:15:52.011Z,101395.63
2023-03-20T20:18:24.783Z,101386.78
2023-03-20T20:21:39.455Z,101392.09
2023-03-20T20:23:44.104Z,101392.09
2023-03-20T20:26:13.165Z,101394.28
2023-03-20T20:28:43.546Z,101397.19
2023-03-20T20:31:12.598Z,101393.34
2023-03-20T20:33:43.254Z,101396.25
2023-03-20T20:39:04.701Z,101395.97
2023-03-20T20:41:34.231Z,101402.84
2023-03-20T20:44:15.553Z,101404.31
2023-03-20T20:46:45.504Z,101408.81
2023-03-20T20:49:19.941Z,101402.84
2023-03-20T20:51:50.201Z,101404.31
2023-03-20T20:54:19.485Z,101404.78
2023-03-20T20:56:48.728Z,101410.38
2023-03-20T20:59:19.020Z,101407.97
2023-03-20T21:01:48.899Z,101421.13
2023-03-20T21:04:19.675Z,101415.91
2023-03-20T21:07:10.030Z,101419.28
2023-03-20T21:09:38.300Z,101417.78
2023-03-20T21:12:08.640Z,101422.56
2023-03-20T21:14:38.232Z,101415.94
2023-03-20T21:17:08.090Z,101422.38
2023-03-20T21:19:40.540Z,101427.47
2023-03-20T21:22:11.927Z,101421.63
2023-03-20T21:24:41.321Z,101418.56
2023-03-20T21:27:13.768Z,101419.63
2023-03-20T21:29:44.461Z,101417.44
2023-03-20T21:32:17.194Z,101420.69
2023-03-20T21:34:49.227Z,101417.22
2023-03-20T21:40:10.632Z,101413.44
2023-03-20T21:42:39.861Z,101418.22
2023-03-20T21:46:25.257Z,101415.31
2023-03-20T21:48:33.343Z,101412.59
2023-03-20T21:51:23.552Z,101417.00
2023-03-20T21:59:54.474Z,101408.31
2023-03-20T22:02:14.981Z,101410.66
2023-03-20T22:08:18.490Z,101407.78
2023-03-20T22:11:22.693Z,101401.63
2023-03-20T22:17:00.616Z,101399.66
2023-03-20T22:22:31.979Z,101397.19
2023-03-20T22:42:25.801Z,101401.63
2023-03-20T22:44:58.961Z,101402.75
2023-03-20T22:47:15.324Z,101404.44
2023-03-20T22:49:44.347Z,101397.19
2023-03-20T22:52:27.139Z,101402.97
2023-03-20T22:55:02.519Z,101400.06
2023-03-20T22:57:42.324Z,101401.25
2023-03-20T23:00:17.953Z,101399.03
2023-03-20T23:02:47.613Z,101396.25
2023-03-20T23:05:16.877Z,101393.28
2023-03-20T23:07:46.079Z,101393.31
2023-03-20T23:10:15.323Z,101393.22
2023-03-20T23:12:46.049Z,101385.25
2023-03-20T23:15:15.127Z,101387.94
2023-03-20T23:17:44.109Z,101390.03
2023-03-20T23:20:18.752Z,101381.34
2023-03-20T23:22:49.482Z,101378.63
2023-03-20T23:25:31.074Z,101379.28
2023-03-20T23:28:09.119Z,101383.19
2023-03-20T23:30:45.330Z,101373.13
2023-03-20T23:33:17.726Z,101376.22
2023-03-20T23:35:47.470Z,101379.47
2023-03-20T23:38:17.503Z,101369.88
2023-03-20T23:40:50.521Z,101373.53
2023-03-20T23:43:21.188Z,101366.97
2023-03-20T23:45:51.039Z,101364.75
2023-03-20T23:48:20.437Z,101363.59
2023-03-20T23:50:53.353Z,101362.88
2023-03-20T23:53:23.398Z,101362.81
2023-03-20T23:55:55.122Z,101361.13
2023-03-20T23:58:27.003Z,101355.69
